createdAt,value
2023-12-18T00:01:30.993Z,9.80
2023-12-18T00:04:04.666Z,9.60
2023-12-18T00:06:36.572Z,9.70
2023-12-18T00:09:08.040Z,9.60
2023-12-18T00:11:38.951Z,9.90
2023-12-18T00:14:09.930Z,9.80
2023-12-18T00:16:40.826Z,9.90
2023-12-18T00:19:11.969Z,9.90
2023-12-18T00:21:43.058Z,10.10
2023-12-18T00:24:14.137Z,10.10
2023-12-18T00:26:45.273Z,10.00
2023-12-18T00:29:16.173Z,10.00
2023-12-18T00:31:49.130Z,10.20
2023-12-18T00:34:20.284Z,10.20
2023-12-18T00:36:51.239Z,9.60
2023-12-18T00:39:22.258Z,9.90
2023-12-18T00:41:53.222Z,9.90
2023-12-18T00:44:24.085Z,9.70
2023-12-18T00:46:55.383Z,9.80
2023-12-18T00:49:29.393Z,9.70
2023-12-18T00:52:00.958Z,9.40
2023-12-18T00:54:31.946Z,9.50
2023-12-18T00:57:02.948Z,9.50
2023-12-18T00:59:33.867Z,9.30
2023-12-18T01:02:05.112Z,9.30
2023-12-18T01:04:36.909Z,9.70
2023-12-18T01:07:07.912Z,9.50
2023-12-18T01:09:39.150Z,9.40
2023-12-18T01:12:10.231Z,9.20
2023-12-18T01:14:41.365Z,9.60
2023-12-18T01:17:14.207Z,9.40
2023-12-18T01:19:46.186Z,9.40
2023-12-18T01:22:17.226Z,9.60
2023-12-18T01:24:48.471Z,9.40
2023-12-18T01:27:19.855Z,9.50
2023-12-18T01:29:50.875Z,9.50
2023-12-18T01:32:21.962Z,9.70
2023-12-18T01:34:52.913Z,9.60
2023-12-18T01:37:23.869Z,9.60
2023-12-18T01:39:54.768Z,9.30
2023-12-18T01:42:25.833Z,9.50
2023-12-18T01:44:56.756Z,9.50
2023-12-18T01:47:27.979Z,9.40
2023-12-18T01:49:59.100Z,9.40
2023-12-18T01:52:30.759Z,9.40
2023-12-18T01:55:02.162Z,9.60
2023-12-18T01:57:34.963Z,9.50
2023-12-18T02:00:08.176Z,9.80
2023-12-18T02:02:39.666Z,10.00
2023-12-18T02:05:10.686Z,9.90
2023-12-18T02:07:41.917Z,9.60
2023-12-18T02:10:12.994Z,9.90
2023-12-18T02:12:43.950Z,10.00
2023-12-18T02:15:15.022Z,10.00
2023-12-18T02:17:45.990Z,10.00
2023-12-18T02:20:17.122Z,10.20
2023-12-18T02:22:47.981Z,10.20
2023-12-18T02:25:20.054Z,10.00
2023-12-18T02:27:51.376Z,10.00
2023-12-18T02:30:25.781Z,9.90
2023-12-18T02:32:56.860Z,9.80
2023-12-18T02:35:28.139Z,9.60
2023-12-18T02:37:59.159Z,9.70
2023-12-18T02:40:30.105Z,9.80
2023-12-18T02:43:01.150Z,9.90
2023-12-18T02:45:32.063Z,9.80
2023-12-18T02:48:03.193Z,10.10
2023-12-18T02:50:34.095Z,10.20
2023-12-18T02:53:05.252Z,10.20
2023-12-18T02:55:36.176Z,10.00
2023-12-18T02:58:07.102Z,10.30
2023-12-18T03:00:38.053Z,10.30
2023-12-18T03:03:09.061Z,10.30
2023-12-18T03:05:40.078Z,10.30
2023-12-18T03:08:10.996Z,9.70
2023-12-18T03:10:41.945Z,10.20
2023-12-18T03:13:13.644Z,9.90
2023-12-18T03:15:45.154Z,10.10
2023-12-18T03:18:16.282Z,10.00
2023-12-18T03:20:47.940Z,9.90
2023-12-18T03:23:18.859Z,9.90
2023-12-18T03:25:49.821Z,9.80
2023-12-18T03:28:20.751Z,9.60
2023-12-18T03:30:51.772Z,9.70
2023-12-18T03:33:22.805Z,9.80
2023-12-18T03:35:53.833Z,9.60
2023-12-18T03:38:25.835Z,9.60
2023-12-18T03:40:56.775Z,9.40
2023-12-18T03:43:28.030Z,9.60
2023-12-18T03:45:58.974Z,9.50
2023-12-18T03:48:29.966Z,9.50
2023-12-18T03:51:01.049Z,9.80
2023-12-18T03:53:31.956Z,9.30
2023-12-18T03:56:02.980Z,9.50
2023-12-18T03:58:33.955Z,9.70
2023-12-18T04:01:05.342Z,9.40
2023-12-18T04:03:36.494Z,9.40
2023-12-18T04:06:10.768Z,9.40
2023-12-18T04:08:41.758Z,9.10
2023-12-18T04:11:20.204Z,9.30
2023-12-18T04:13:54.107Z,9.20
2023-12-18T04:16:24.965Z,9.20
2023-12-18T04:18:56.030Z,9.50
2023-12-18T04:21:26.983Z,9.80
2023-12-18T04:23:57.923Z,9.50
2023-12-18T04:26:28.837Z,9.60
2023-12-18T04:28:59.693Z,9.70
2023-12-18T04:31:30.669Z,9.60
2023-12-18T04:34:01.770Z,9.50
2023-12-18T04:36:32.877Z,9.50
2023-12-18T04:39:03.921Z,9.60
2023-12-18T04:41:34.868Z,9.40
2023-12-18T04:44:07.056Z,9.40
2023-12-18T04:46:38.258Z,9.70
2023-12-18T04:49:10.586Z,9.80
2023-12-18T04:51:41.672Z,9.90
2023-12-18T04:54:12.753Z,9.90
2023-12-18T04:56:43.685Z,9.90
2023-12-18T04:59:15.172Z,9.80
2023-12-18T05:01:46.453Z,9.80
2023-12-18T05:04:17.516Z,9.80
2023-12-18T05:06:48.522Z,10.00
2023-12-18T05:09:19.463Z,9.80
2023-12-18T05:11:50.420Z,9.80
2023-12-18T05:14:21.624Z,9.80
2023-12-18T05:16:52.495Z,10.00
2023-12-18T05:19:24.696Z,10.00
2023-12-18T05:21:55.684Z,10.00
2023-12-18T05:24:26.877Z,10.00
2023-12-18T05:26:57.806Z,9.60
2023-12-18T05:29:28.706Z,9.80
2023-12-18T05:31:59.641Z,9.70
2023-12-18T05:34:31.286Z,10.10
2023-12-18T05:37:03.512Z,9.60
2023-12-18T05:39:34.484Z,9.80
2023-12-18T05:42:06.804Z,10.00
2023-12-18T05:44:38.937Z,10.00
2023-12-18T05:47:09.852Z,9.70
2023-12-18T05:49:41.014Z,10.00
2023-12-18T05:52:12.034Z,10.30
2023-12-18T05:54:42.970Z,10.00
2023-12-18T05:57:18.042Z,10.00
2023-12-18T05:59:49.103Z,10.00
2023-12-18T06:02:20.052Z,10.20
2023-12-18T06:04:51.083Z,10.00
2023-12-18T06:07:22.120Z,9.90
2023-12-18T06:09:53.095Z,9.80
2023-12-18T06:12:24.035Z,10.00
2023-12-18T06:14:54.950Z,10.00
2023-12-18T06:17:25.852Z,10.10
2023-12-18T06:19:57.068Z,10.00
2023-12-18T06:22:28.050Z,9.70
2023-12-18T06:24:58.925Z,9.50
2023-12-18T06:27:29.907Z,9.30
2023-12-18T06:30:00.809Z,9.40
2023-12-18T06:32:31.854Z,9.40
2023-12-18T06:35:02.997Z,9.40
2023-12-18T06:37:34.079Z,9.40
2023-12-18T06:40:05.866Z,9.50
2023-12-18T06:42:36.811Z,9.50
2023-12-18T06:45:08.502Z,9.40
2023-12-18T06:47:39.410Z,9.40
2023-12-18T06:50:10.525Z,9.30
2023-12-18T06:52:42.664Z,9.40
2023-12-18T06:55:13.867Z,9.40
2023-12-18T06:57:44.924Z,8.90
2023-12-18T07:00:16.506Z,9.40
2023-12-18T07:02:47.428Z,9.40
2023-12-18T07:05:18.420Z,9.20
2023-12-18T07:07:49.377Z,9.50
2023-12-18T07:10:20.342Z,9.50
2023-12-18T07:12:51.385Z,9.60
2023-12-18T07:15:25.632Z,9.40
2023-12-18T07:17:59.584Z,9.50
2023-12-18T07:20:30.668Z,9.40
2023-12-18T07:23:01.636Z,9.30
2023-12-18T07:25:32.564Z,9.20
2023-12-18T07:28:08.930Z,9.30
2023-12-18T07:30:40.620Z,9.10
2023-12-18T07:33:12.543Z,9.40
2023-12-18T07:35:43.649Z,8.90
2023-12-18T07:38:14.726Z,8.90
2023-12-18T07:40:45.700Z,8.80
2023-12-18T07:43:17.049Z,9.00
2023-12-18T07:45:48.135Z,9.20
2023-12-18T07:48:23.143Z,9.30
2023-12-18T07:50:54.373Z,9.40
2023-12-18T07:53:25.279Z,8.90
2023-12-18T07:55:56.206Z,8.90
2023-12-18T07:58:27.107Z,8.90
2023-12-18T08:00:58.249Z,8.80
2023-12-18T08:03:29.376Z,9.00
2023-12-18T08:06:00.489Z,9.10
2023-12-18T08:08:31.359Z,9.30
2023-12-18T08:11:02.299Z,9.40
2023-12-18T08:13:39.228Z,9.40
2023-12-18T08:16:12.476Z,9.80
2023-12-18T08:18:43.911Z,9.80
2023-12-18T08:21:15.818Z,9.60
2023-12-18T08:23:46.789Z,9.60
2023-12-18T08:26:18.812Z,9.60
2023-12-18T08:28:49.730Z,9.70
2023-12-18T08:31:20.958Z,9.80
2023-12-18T08:33:52.091Z,9.70
2023-12-18T08:36:23.063Z,9.90
2023-12-18T08:38:53.965Z,9.90
2023-12-18T08:41:24.913Z,9.90
2023-12-18T08:44:03.091Z,10.10
2023-12-18T08:46:37.155Z,10.20
2023-12-18T08:49:08.110Z,10.20
2023-12-18T08:51:39.067Z,10.50
2023-12-18T08:54:10.369Z,10.20
2023-12-18T08:56:41.388Z,10.40
2023-12-18T08:59:12.408Z,10.60
2023-12-18T09:01:43.343Z,10.90
2023-12-18T09:04:14.491Z,10.90
2023-12-18T09:06:45.491Z,11.10
2023-12-18T09:09:16.472Z,10.90
2023-12-18T09:11:47.444Z,11.30
2023-12-18T09:14:18.340Z,11.40
2023-12-18T09:16:50.274Z,11.10
2023-12-18T09:19:21.350Z,11.20
2023-12-18T09:21:52.410Z,11.60
2023-12-18T09:24:23.352Z,11.30
2023-12-18T09:26:54.305Z,11.50
2023-12-18T09:29:25.396Z,11.70
2023-12-18T09:31:56.412Z,11.50
2023-12-18T09:34:27.684Z,11.90
2023-12-18T09:36:58.740Z,11.40
2023-12-18T09:39:29.779Z,11.80
2023-12-18T09:42:03.091Z,11.60
2023-12-18T09:44:34.228Z,11.90
2023-12-18T09:47:05.795Z,11.70
2023-12-18T09:49:37.636Z,11.50
2023-12-18T09:52:11.277Z,10.90
2023-12-18T09:54:44.272Z,11.40
2023-12-18T09:57:19.318Z,11.30
2023-12-18T09:59:50.679Z,12.90
2023-12-18T10:02:22.883Z,13.50
2023-12-18T10:04:54.537Z,13.10
2023-12-18T10:07:25.587Z,13.20
2023-12-18T10:09:56.575Z,13.90
2023-12-18T10:12:27.661Z,13.70
2023-12-18T10:14:58.615Z,13.00
2023-12-18T10:17:32.178Z,12.70
2023-12-18T10:20:06.380Z,12.20
2023-12-18T10:22:37.570Z,12.90
2023-12-18T10:25:10.880Z,12.40
2023-12-18T10:27:43.869Z,12.60
2023-12-18T10:30:17.969Z,13.50
2023-12-18T10:32:50.169Z,13.30
2023-12-18T10:35:23.115Z,13.80
2023-12-18T10:37:55.533Z,13.60
2023-12-18T10:40:27.765Z,13.90
2023-12-18T10:43:22.869Z,13.80
2023-12-18T10:45:58.833Z,14.20
2023-12-18T10:48:30.671Z,14.30
2023-12-18T10:51:03.560Z,13.80
2023-12-18T10:53:36.667Z,14.30
2023-12-18T10:56:09.930Z,15.00
2023-12-18T10:58:42.887Z,14.70
2023-12-18T11:01:16.486Z,15.20
2023-12-18T11:03:47.822Z,15.50
2023-12-18T11:06:20.251Z,14.80
2023-12-18T11:08:52.551Z,14.90
2023-12-18T11:11:24.960Z,15.00
2023-12-18T11:14:36.394Z,15.40
2023-12-18T11:17:28.091Z,16.00
2023-12-18T11:20:19.731Z,15.30
2023-12-18T11:22:55.131Z,15.70
2023-12-18T11:25:36.690Z,16.30
2023-12-18T11:28:08.158Z,16.50
2023-12-18T11:30:44.199Z,15.90
2023-12-18T11:33:16.334Z,16.70
2023-12-18T11:35:50.487Z,16.60
2023-12-18T11:38:22.971Z,16.90
2023-12-18T11:40:54.135Z,17.10
2023-12-18T11:43:39.803Z,17.10
2023-12-18T11:46:18.052Z,15.60
2023-12-18T11:48:50.825Z,16.70
2023-12-18T11:51:25.085Z,15.30
2023-12-18T11:54:03.473Z,16.90
2023-12-18T11:56:41.720Z,17.00
2023-12-18T11:59:15.704Z,16.90
2023-12-18T12:01:48.264Z,16.80
2023-12-18T12:04:21.468Z,17.10
2023-12-18T12:06:53.238Z,16.40
2023-12-18T12:09:24.254Z,17.50
2023-12-18T12:11:55.236Z,17.10
2023-12-18T12:14:28.354Z,17.50
2023-12-18T12:17:06.249Z,17.40
2023-12-18T12:19:37.322Z,17.60
2023-12-18T12:22:10.528Z,17.00
2023-12-18T12:24:41.533Z,18.10
2023-12-18T12:27:13.449Z,17.60
2023-12-18T12:29:50.829Z,18.30
2023-12-18T12:32:25.093Z,17.90
2023-12-18T12:34:57.496Z,18.20
2023-12-18T12:37:34.838Z,17.40
2023-12-18T12:40:09.950Z,17.80
2023-12-18T12:42:42.716Z,18.30
2023-12-18T12:45:13.763Z,18.10
2023-12-18T12:47:50.805Z,18.20
2023-12-18T12:50:21.932Z,18.40
2023-12-18T12:52:53.004Z,18.50
2023-12-18T12:55:26.370Z,18.40
2023-12-18T12:57:57.677Z,18.40
2023-12-18T13:00:31.312Z,18.70
2023-12-18T13:03:02.735Z,18.90
2023-12-18T13:05:34.103Z,18.80
2023-12-18T13:08:23.277Z,19.10
2023-12-18T13:10:54.607Z,19.20
2023-12-18T13:13:30.686Z,19.30
2023-12-18T13:16:01.804Z,18.70
2023-12-18T13:18:33.756Z,18.40
2023-12-18T13:21:05.186Z,18.70
2023-12-18T13:23:44.328Z,19.10
2023-12-18T13:26:16.161Z,18.60
2023-12-18T13:28:47.124Z,18.40
2023-12-18T13:31:18.146Z,18.40
2023-12-18T13:33:52.652Z,17.80
2023-12-18T13:36:24.277Z,17.80
2023-12-18T13:38:55.298Z,17.90
2023-12-18T13:41:40.265Z,18.00
2023-12-18T13:44:12.683Z,18.40
2023-12-18T13:46:49.915Z,18.20
2023-12-18T13:49:21.125Z,18.10
2023-12-18T13:51:52.870Z,17.80
2023-12-18T13:54:23.982Z,17.90
2023-12-18T13:56:57.963Z,17.90
2023-12-18T13:59:28.831Z,17.80
2023-12-18T14:02:02.069Z,17.70
2023-12-18T14:04:33.018Z,17.80
2023-12-18T14:07:04.206Z,17.60
2023-12-18T14:09:35.200Z,17.70
2023-12-18T14:12:06.890Z,17.60
2023-12-18T14:14:37.864Z,17.50
2023-12-18T14:17:08.768Z,17.60
2023-12-18T14:19:43.995Z,17.60
2023-12-18T14:22:15.022Z,17.60
2023-12-18T14:24:45.929Z,17.60
2023-12-18T14:27:18.464Z,17.50
2023-12-18T14:29:49.400Z,17.50
2023-12-18T14:32:23.077Z,17.30
2023-12-18T14:34:54.254Z,17.20
2023-12-18T14:37:25.330Z,17.10
2023-12-18T14:39:56.473Z,17.10
2023-12-18T14:42:27.512Z,17.00
2023-12-18T14:44:59.318Z,16.90
2023-12-18T14:47:33.438Z,16.90
2023-12-18T14:50:05.335Z,16.60
2023-12-18T14:52:36.718Z,16.70
2023-12-18T14:55:08.311Z,16.60
2023-12-18T14:57:41.420Z,16.50
2023-12-18T15:00:13.566Z,16.30
2023-12-18T15:02:45.030Z,16.40
2023-12-18T15:05:16.199Z,16.20
2023-12-18T15:07:47.122Z,16.00
2023-12-18T15:10:18.781Z,16.00
2023-12-18T15:12:49.882Z,16.10
2023-12-18T15:15:20.859Z,16.00
2023-12-18T15:17:51.886Z,15.90
2023-12-18T15:20:23.092Z,15.80
2023-12-18T15:22:53.985Z,15.60
2023-12-18T15:25:24.936Z,15.60
2023-12-18T15:27:57.460Z,15.40
2023-12-18T15:30:28.656Z,15.10
2023-12-18T15:32:59.711Z,15.10
2023-12-18T15:35:30.659Z,15.00
2023-12-18T15:38:01.561Z,14.90
2023-12-18T15:40:32.511Z,14.90
2023-12-18T15:43:03.642Z,14.60
2023-12-18T15:45:34.665Z,14.60
2023-12-18T15:48:06.287Z,14.50
2023-12-18T15:50:39.338Z,14.50
2023-12-18T15:53:11.703Z,14.40
2023-12-18T15:55:47.053Z,14.30
2023-12-18T15:58:19.705Z,13.90
2023-12-18T16:00:50.709Z,14.10
2023-12-18T16:03:21.843Z,14.10
2023-12-18T16:05:53.806Z,13.90
2023-12-18T16:08:25.826Z,13.80
2023-12-18T16:10:56.797Z,13.60
2023-12-18T16:13:28.568Z,13.40
2023-12-18T16:15:59.765Z,13.50
2023-12-18T16:18:31.103Z,13.50
2023-12-18T16:21:02.217Z,13.40
2023-12-18T16:23:33.129Z,15.50
2023-12-18T16:26:04.425Z,16.50
2023-12-18T16:28:39.845Z,16.70
2023-12-18T16:31:11.074Z,17.00
2023-12-18T16:33:42.196Z,16.90
2023-12-18T16:36:18.786Z,15.20
2023-12-18T16:38:49.851Z,14.10
2023-12-18T16:41:21.816Z,13.90
2023-12-18T16:43:55.348Z,13.80
2023-12-18T16:46:40.201Z,13.40
2023-12-18T16:49:19.094Z,13.20
2023-12-18T16:51:52.108Z,12.90
2023-12-18T16:54:26.665Z,12.40
2023-12-18T16:57:03.183Z,12.70
2023-12-18T16:59:34.115Z,12.60
2023-12-18T17:02:05.520Z,12.60
2023-12-18T17:04:36.709Z,12.80
2023-12-18T17:07:07.710Z,12.40
2023-12-18T17:09:39.463Z,12.60
2023-12-18T17:12:11.928Z,12.20
2023-12-18T17:14:49.219Z,12.60
2023-12-18T17:17:22.629Z,12.50
2023-12-18T17:19:53.631Z,12.40
2023-12-18T17:22:31.858Z,12.20
2023-12-18T17:25:02.869Z,12.20
2023-12-18T17:27:33.861Z,12.30
2023-12-18T17:30:06.230Z,11.90
2023-12-18T17:32:37.716Z,12.30
2023-12-18T17:35:08.937Z,12.10
2023-12-18T17:37:39.844Z,12.20
2023-12-18T17:40:12.016Z,12.30
2023-12-18T17:42:43.280Z,14.40
2023-12-18T17:45:14.432Z,16.20
2023-12-18T17:47:45.562Z,16.20
2023-12-18T17:50:20.001Z,14.00
2023-12-18T17:52:51.681Z,13.40
2023-12-18T17:55:22.675Z,12.20
2023-12-18T17:57:54.840Z,12.30
2023-12-18T18:00:25.957Z,12.10
2023-12-18T18:02:57.022Z,12.20
2023-12-18T18:05:28.153Z,11.80
2023-12-18T18:08:04.995Z,11.70
2023-12-18T18:10:37.282Z,11.60
2023-12-18T18:13:08.225Z,11.30
2023-12-18T18:15:39.265Z,11.70
2023-12-18T18:18:13.754Z,13.50
2023-12-18T18:20:44.852Z,14.00
2023-12-18T18:23:18.784Z,14.30
2023-12-18T18:25:49.984Z,14.30
2023-12-18T18:28:20.929Z,14.30
2023-12-18T18:30:56.944Z,14.50
2023-12-18T18:33:33.094Z,14.60
2023-12-18T18:36:09.056Z,14.70
2023-12-18T18:38:44.794Z,14.70
2023-12-18T18:41:15.787Z,14.30
2023-12-18T18:43:48.921Z,14.50
2023-12-18T18:46:25.384Z,14.50
2023-12-18T18:48:56.514Z,14.50
2023-12-18T18:51:27.556Z,14.50
2023-12-18T18:53:58.515Z,14.70
2023-12-18T18:56:29.648Z,14.50
2023-12-18T18:59:03.074Z,14.50
2023-12-18T19:01:45.626Z,14.90
2023-12-18T19:04:17.214Z,14.90
2023-12-18T19:06:51.258Z,14.90
2023-12-18T19:09:22.330Z,13.10
2023-12-18T19:11:55.688Z,12.50
2023-12-18T19:14:26.987Z,12.10
2023-12-18T19:16:59.382Z,11.60
2023-12-18T19:19:36.341Z,11.40
2023-12-18T19:22:07.389Z,11.30
2023-12-18T19:24:38.370Z,11.30
2023-12-18T19:27:09.320Z,11.10
2023-12-18T19:29:40.239Z,11.00
2023-12-18T19:32:11.885Z,11.10
2023-12-18T19:34:43.347Z,10.70
2023-12-18T19:37:14.342Z,11.30
2023-12-18T19:39:45.860Z,11.00
2023-12-18T19:42:16.961Z,10.90
2023-12-18T19:44:48.869Z,10.70
2023-12-18T19:47:19.894Z,10.50
2023-12-18T19:49:51.483Z,10.80
2023-12-18T19:52:22.542Z,10.90
2023-12-18T19:54:53.573Z,10.80
2023-12-18T19:57:24.501Z,10.80
2023-12-18T19:59:55.399Z,10.40
2023-12-18T20:02:27.015Z,10.40
2023-12-18T20:04:58.061Z,10.50
2023-12-18T20:07:29.086Z,11.10
2023-12-18T20:10:00.577Z,10.90
2023-12-18T20:12:31.754Z,10.70
2023-12-18T20:15:02.814Z,10.50
2023-12-18T20:17:35.166Z,10.90
2023-12-18T20:20:06.700Z,10.70
2023-12-18T20:22:37.667Z,10.60
2023-12-18T20:25:13.260Z,10.50
2023-12-18T20:27:44.272Z,10.60
2023-12-18T20:30:15.576Z,10.40
2023-12-18T20:32:46.856Z,10.50
2023-12-18T20:35:18.092Z,10.50
2023-12-18T20:37:48.959Z,10.60
2023-12-18T20:40:19.924Z,10.30
2023-12-18T20:42:51.438Z,10.50
2023-12-18T20:45:23.047Z,10.20
2023-12-18T20:47:55.359Z,10.30
2023-12-18T20:50:27.783Z,11.80
2023-12-18T20:52:59.757Z,14.20
2023-12-18T20:55:30.840Z,15.20
2023-12-18T20:58:01.819Z,13.50
2023-12-18T21:00:33.464Z,12.60
2023-12-18T21:03:06.228Z,11.70
2023-12-18T21:05:37.746Z,11.50
2023-12-18T21:08:08.789Z,11.20
2023-12-18T21:10:39.733Z,10.60
2023-12-18T21:13:11.520Z,10.70
2023-12-18T21:15:49.195Z,10.50
2023-12-18T21:18:26.039Z,10.40
2023-12-18T21:20:56.998Z,10.50
2023-12-18T21:23:28.277Z,10.80
2023-12-18T21:25:59.232Z,10.20
2023-12-18T21:28:30.159Z,10.80
2023-12-18T21:31:01.650Z,11.10
2023-12-18T21:33:32.827Z,10.80
2023-12-18T21:36:06.238Z,10.90
2023-12-18T21:38:37.899Z,10.20
2023-12-18T21:41:09.981Z,11.30
2023-12-18T21:43:41.063Z,13.70
2023-12-18T21:46:15.555Z,13.30
2023-12-18T21:48:46.692Z,12.30
2023-12-18T21:51:27.496Z,11.70
2023-12-18T21:54:05.599Z,11.40
2023-12-18T21:56:36.585Z,10.80
2023-12-18T21:59:07.751Z,10.90
2023-12-18T22:01:39.418Z,10.60
2023-12-18T22:04:10.697Z,12.20
2023-12-18T22:06:41.994Z,14.00
2023-12-18T22:09:13.098Z,14.80
2023-12-18T22:11:46.055Z,14.70
2023-12-18T22:14:17.116Z,14.90
2023-12-18T22:16:48.171Z,13.60
2023-12-18T22:19:19.299Z,12.30
2023-12-18T22:21:50.472Z,11.50
2023-12-18T22:24:22.088Z,11.80
2023-12-18T22:26:53.569Z,11.60
2023-12-18T22:29:24.529Z,11.30
2023-12-18T22:31:59.096Z,10.90
2023-12-18T22:34:32.131Z,10.70
2023-12-18T22:37:03.301Z,10.90
2023-12-18T22:39:34.640Z,10.40
2023-12-18T22:42:06.023Z,10.50
2023-12-18T22:44:36.934Z,11.00
2023-12-18T22:47:09.270Z,10.90
2023-12-18T22:49:40.496Z,10.70
2023-12-18T22:52:11.854Z,10.80
2023-12-18T22:54:43.325Z,10.80
2023-12-18T22:57:14.308Z,10.80
2023-12-18T22:59:45.264Z,10.80
2023-12-18T23:02:16.175Z,10.80
2023-12-18T23:04:47.276Z,10.80
2023-12-18T23:07:18.270Z,10.60
2023-12-18T23:09:49.619Z,10.70
2023-12-18T23:12:21.286Z,10.90
2023-12-18T23:14:52.349Z,10.80
2023-12-18T23:17:23.293Z,10.60
2023-12-18T23:19:54.398Z,10.80
2023-12-18T23:22:25.931Z,10.70
2023-12-18T23:24:57.035Z,10.80
2023-12-18T23:27:28.085Z,10.40
2023-12-18T23:29:59.132Z,10.30
2023-12-18T23:32:30.088Z,10.60
2023-12-18T23:35:01.344Z,10.70
2023-12-18T23:37:32.395Z,10.60
2023-12-18T23:40:04.310Z,10.70
2023-12-18T23:42:35.528Z,10.60
2023-12-18T23:45:07.380Z,10.40
2023-12-18T23:47:38.339Z,10.50
2023-12-18T23:50:09.774Z,10.30
2023-12-18T23:52:41.010Z,10.30
2023-12-18T23:55:15.746Z,10.50
2023-12-18T23:57:46.693Z,10.20
